createdAt,value
2023-01-18T00:01:22.339Z,5.62
2023-01-18T00:03:51.203Z,5.80
2023-01-18T00:06:19.517Z,6.13
2023-01-18T00:08:47.826Z,6.54
2023-01-18T00:11:18.541Z,6.90
2023-01-18T00:13:48.029Z,7.16
2023-01-18T00:16:19.476Z,7.34
2023-01-18T00:18:56.233Z,7.56
2023-01-18T00:21:26.519Z,7.70
2023-01-18T00:23:56.452Z,7.82
2023-01-18T00:26:24.627Z,7.92
2023-01-18T00:28:55.742Z,7.99
2023-01-18T00:31:24.214Z,8.03
2023-01-18T00:33:52.618Z,8.13
2023-01-18T00:36:21.613Z,8.23
2023-01-18T00:38:54.220Z,8.29
2023-01-18T00:41:23.082Z,8.36
2023-01-18T00:43:52.388Z,8.42
2023-01-18T00:46:27.448Z,8.45
2023-01-18T00:48:57.451Z,8.45
2023-01-18T00:51:26.071Z,8.49
2023-01-18T00:53:54.232Z,8.55
2023-01-18T00:56:23.409Z,8.62
2023-01-18T00:58:51.581Z,8.65
2023-01-18T01:01:20.566Z,8.72
2023-01-18T01:04:07.567Z,8.76
2023-01-18T01:06:46.636Z,8.77
2023-01-18T01:09:25.384Z,8.78
2023-01-18T01:12:13.019Z,8.82
2023-01-18T01:15:03.681Z,8.85
2023-01-18T01:17:52.446Z,8.86
2023-01-18T01:20:40.461Z,8.90
2023-01-18T01:23:38.432Z,8.91
2023-01-18T01:26:08.798Z,8.93
2023-01-18T01:28:39.288Z,8.94
2023-01-18T01:31:10.292Z,8.95
2023-01-18T01:33:39.414Z,8.95
2023-01-18T01:36:13.834Z,8.93
2023-01-18T01:38:42.431Z,8.92
2023-01-18T01:41:20.672Z,8.95
2023-01-18T01:43:54.834Z,8.94
2023-01-18T01:46:41.725Z,8.88
2023-01-18T01:49:17.590Z,8.85
2023-01-18T01:51:58.223Z,8.87
2023-01-18T01:55:01.876Z,8.90
2023-01-18T01:58:02.845Z,8.87
2023-01-18T02:00:31.753Z,8.88
2023-01-18T02:03:06.371Z,8.88
2023-01-18T02:05:42.709Z,8.85
2023-01-18T02:08:13.773Z,8.86
2023-01-18T02:10:42.019Z,8.85
2023-01-18T02:13:11.371Z,8.84
2023-01-18T02:16:07.043Z,8.84
2023-01-18T02:18:50.713Z,8.85
2023-01-18T02:21:26.943Z,8.90
2023-01-18T02:24:01.404Z,8.93
2023-01-18T02:27:00.699Z,8.92
2023-01-18T02:29:41.141Z,8.97
2023-01-18T02:32:29.678Z,8.97
2023-01-18T02:35:11.180Z,8.96
2023-01-18T02:37:48.434Z,9.01
2023-01-18T02:40:39.918Z,9.03
2023-01-18T02:43:30.296Z,9.04
2023-01-18T02:46:18.780Z,9.01
2023-01-18T02:48:48.955Z,8.98
2023-01-18T02:51:17.349Z,8.94
2023-01-18T02:53:47.779Z,8.95
2023-01-18T02:56:17.557Z,8.96
2023-01-18T02:58:51.322Z,8.99
2023-01-18T03:01:22.523Z,9.02
2023-01-18T03:03:55.264Z,9.04
2023-01-18T03:06:27.949Z,9.01
2023-01-18T03:08:58.596Z,9.00
2023-01-18T03:11:32.642Z,8.99
2023-01-18T03:14:29.323Z,8.98
2023-01-18T03:17:11.439Z,9.01
2023-01-18T03:19:58.413Z,9.02
2023-01-18T03:22:48.271Z,9.05
2023-01-18T03:25:20.658Z,9.05
2023-01-18T03:28:10.386Z,9.04
2023-01-18T03:30:59.757Z,9.03
2023-01-18T03:33:47.799Z,9.02
2023-01-18T03:36:41.564Z,8.99
2023-01-18T03:39:16.068Z,8.98
2023-01-18T03:41:49.134Z,8.94
2023-01-18T03:44:29.613Z,8.85
2023-01-18T03:46:58.076Z,8.78
2023-01-18T03:49:27.662Z,8.72
2023-01-18T03:52:29.683Z,8.68
2023-01-18T03:55:07.931Z,8.59
2023-01-18T03:57:43.756Z,8.52
2023-01-18T04:00:14.402Z,8.42
2023-01-18T04:02:47.442Z,8.36
2023-01-18T04:05:17.335Z,8.30
2023-01-18T04:07:45.642Z,8.27
2023-01-18T04:10:14.068Z,8.27
2023-01-18T04:12:43.473Z,8.27
2023-01-18T04:15:11.973Z,8.24
2023-01-18T04:17:41.400Z,8.23
2023-01-18T04:20:11.505Z,8.25
2023-01-18T04:22:45.767Z,8.28
2023-01-18T04:25:13.986Z,8.33
2023-01-18T04:27:42.303Z,8.36
2023-01-18T04:30:11.169Z,8.39
2023-01-18T04:32:40.227Z,8.42
2023-01-18T04:35:15.563Z,8.45
2023-01-18T04:37:43.992Z,8.48
2023-01-18T04:40:13.050Z,8.48
2023-01-18T04:42:41.279Z,8.50
2023-01-18T04:45:14.263Z,8.50
2023-01-18T04:47:42.972Z,8.49
2023-01-18T04:50:12.260Z,8.46
2023-01-18T04:52:40.589Z,8.46
2023-01-18T04:55:15.648Z,8.46
2023-01-18T04:57:54.490Z,8.46
2023-01-18T05:00:24.355Z,8.43
2023-01-18T05:02:53.796Z,8.38
2023-01-18T05:05:22.482Z,8.34
2023-01-18T05:07:53.623Z,8.32
2023-01-18T05:10:21.786Z,8.30
2023-01-18T05:12:50.082Z,8.27
2023-01-18T05:15:18.489Z,8.29
2023-01-18T05:17:46.748Z,8.33
2023-01-18T05:20:19.716Z,8.41
2023-01-18T05:22:47.904Z,8.48
2023-01-18T05:25:16.308Z,8.52
2023-01-18T05:27:46.581Z,8.58
2023-01-18T05:30:21.158Z,8.63
2023-01-18T05:32:49.389Z,8.66
2023-01-18T05:35:17.723Z,8.67
2023-01-18T05:37:52.243Z,8.73
2023-01-18T05:40:22.321Z,8.76
2023-01-18T05:42:53.215Z,8.79
2023-01-18T05:45:21.429Z,8.82
2023-01-18T05:47:52.540Z,8.84
2023-01-18T05:50:20.775Z,8.85
2023-01-18T05:52:48.934Z,8.82
2023-01-18T05:55:18.477Z,8.84
2023-01-18T05:57:52.763Z,8.81
2023-01-18T06:00:21.332Z,8.79
2023-01-18T06:02:56.682Z,8.74
2023-01-18T06:05:25.659Z,8.74
2023-01-18T06:07:54.052Z,8.77
2023-01-18T06:10:22.250Z,8.80
2023-01-18T06:12:50.644Z,8.86
2023-01-18T06:15:18.934Z,8.93
2023-01-18T06:17:47.336Z,8.98
2023-01-18T06:20:16.046Z,9.03
2023-01-18T06:22:45.741Z,9.09
2023-01-18T06:25:14.197Z,9.19
2023-01-18T06:27:42.396Z,9.29
2023-01-18T06:30:11.182Z,9.39
2023-01-18T06:32:39.337Z,9.50
2023-01-18T06:35:08.114Z,9.53
2023-01-18T06:37:36.339Z,9.64
2023-01-18T06:40:05.460Z,9.70
2023-01-18T06:42:33.777Z,9.73
2023-01-18T06:45:01.923Z,9.81
2023-01-18T06:47:30.359Z,9.89
2023-01-18T06:49:58.639Z,9.94
2023-01-18T06:52:26.915Z,10.02
2023-01-18T06:54:55.175Z,10.11
2023-01-18T06:57:24.112Z,10.19
2023-01-18T06:59:53.572Z,10.25
2023-01-18T07:02:21.897Z,10.30
2023-01-18T07:04:50.559Z,10.36
2023-01-18T07:07:18.956Z,10.45
2023-01-18T07:09:47.167Z,10.58
2023-01-18T07:12:15.484Z,10.64
2023-01-18T07:14:43.789Z,10.75
2023-01-18T07:17:12.128Z,10.85
2023-01-18T07:19:40.463Z,10.95
2023-01-18T07:22:08.827Z,11.00
2023-01-18T07:24:37.016Z,11.04
2023-01-18T07:27:05.236Z,11.04
2023-01-18T07:29:33.490Z,10.97
2023-01-18T07:32:02.741Z,10.89
2023-01-18T07:34:31.094Z,10.82
2023-01-18T07:36:59.386Z,10.83
2023-01-18T07:39:27.643Z,10.85
2023-01-18T07:41:56.013Z,10.89
2023-01-18T07:44:24.653Z,10.92
2023-01-18T07:46:52.938Z,10.95
2023-01-18T07:49:21.181Z,11.00
2023-01-18T07:51:49.416Z,11.07
2023-01-18T07:54:19.257Z,11.13
2023-01-18T07:56:47.532Z,11.18
2023-01-18T07:59:16.117Z,11.28
2023-01-18T08:01:44.424Z,11.37
2023-01-18T08:04:12.684Z,11.45
2023-01-18T08:06:40.943Z,11.50
2023-01-18T08:09:09.204Z,11.59
2023-01-18T08:11:37.428Z,11.65
2023-01-18T08:14:05.671Z,11.74
2023-01-18T08:16:33.910Z,11.79
2023-01-18T08:19:02.167Z,11.86
2023-01-18T08:21:32.041Z,11.98
2023-01-18T08:24:00.328Z,12.06
2023-01-18T08:26:28.531Z,12.18
2023-01-18T08:28:57.884Z,12.27
2023-01-18T08:31:27.070Z,12.36
2023-01-18T08:33:55.498Z,12.43
2023-01-18T08:36:25.618Z,12.55
2023-01-18T08:38:57.274Z,12.68
2023-01-18T08:41:30.676Z,12.72
2023-01-18T08:43:59.726Z,12.71
2023-01-18T08:46:28.666Z,12.72
2023-01-18T08:48:59.557Z,12.71
2023-01-18T08:51:28.056Z,12.76
2023-01-18T08:53:57.417Z,12.77
2023-01-18T08:56:26.225Z,12.84
2023-01-18T08:58:56.117Z,13.12
2023-01-18T09:01:25.101Z,13.36
2023-01-18T09:03:55.373Z,13.39
2023-01-18T09:06:24.308Z,13.51
2023-01-18T09:08:53.266Z,13.53
2023-01-18T09:11:21.480Z,13.51
2023-01-18T09:14:00.711Z,13.53
2023-01-18T09:16:31.277Z,13.59
2023-01-18T09:19:00.019Z,13.61
2023-01-18T09:21:29.397Z,13.74
2023-01-18T09:23:59.765Z,13.77
2023-01-18T09:26:30.624Z,13.75
2023-01-18T09:28:59.077Z,13.74
2023-01-18T09:31:29.132Z,13.66
2023-01-18T09:34:09.563Z,13.62
2023-01-18T09:36:46.901Z,13.57
2023-01-18T09:39:15.270Z,13.55
2023-01-18T09:41:49.769Z,13.53
2023-01-18T09:44:24.243Z,13.51
2023-01-18T09:47:00.438Z,13.51
2023-01-18T09:49:38.189Z,13.52
2023-01-18T09:52:44.093Z,13.49
2023-01-18T09:55:52.367Z,13.52
2023-01-18T09:58:53.800Z,13.51
2023-01-18T10:01:30.200Z,13.57
2023-01-18T10:04:01.028Z,13.55
2023-01-18T10:06:37.216Z,13.50
2023-01-18T10:09:15.746Z,13.44
2023-01-18T10:11:50.963Z,13.44
2023-01-18T10:14:43.897Z,13.43
2023-01-18T10:17:18.263Z,13.44
2023-01-18T10:19:47.659Z,13.45
2023-01-18T10:22:34.550Z,13.49
2023-01-18T10:25:24.313Z,13.52
2023-01-18T10:28:33.516Z,13.60
2023-01-18T10:31:32.050Z,13.64
2023-01-18T10:34:02.932Z,13.74
2023-01-18T10:36:41.895Z,13.83
2023-01-18T10:39:36.397Z,14.02
2023-01-18T10:42:17.634Z,14.07
2023-01-18T10:44:45.857Z,14.05
2023-01-18T10:47:17.984Z,14.05
2023-01-18T10:49:49.204Z,14.10
2023-01-18T10:52:26.376Z,14.13
2023-01-18T10:55:01.807Z,14.18
2023-01-18T10:57:34.576Z,14.28
2023-01-18T11:00:12.618Z,14.35
2023-01-18T11:02:45.157Z,14.44
2023-01-18T11:05:27.564Z,14.54
2023-01-18T11:08:17.624Z,14.58
2023-01-18T11:10:46.043Z,14.63
2023-01-18T11:13:35.714Z,14.69
2023-01-18T11:16:08.775Z,14.73
2023-01-18T11:18:37.149Z,14.78
2023-01-18T11:21:11.272Z,14.83
2023-01-18T11:23:43.029Z,14.82
2023-01-18T11:26:19.264Z,14.78
2023-01-18T11:29:00.879Z,14.74
2023-01-18T11:31:49.733Z,14.70
2023-01-18T11:34:29.989Z,14.62
2023-01-18T11:37:00.808Z,14.56
2023-01-18T11:39:33.502Z,14.50
2023-01-18T11:42:26.820Z,14.49
2023-01-18T11:45:04.513Z,14.43
2023-01-18T11:48:03.785Z,14.38
2023-01-18T11:50:46.024Z,14.34
2023-01-18T11:53:57.247Z,14.32
2023-01-18T11:56:35.067Z,14.25
2023-01-18T11:59:12.506Z,14.23
2023-01-18T12:01:55.650Z,14.21
2023-01-18T12:04:45.655Z,14.17
2023-01-18T12:07:16.748Z,14.17
2023-01-18T12:09:54.176Z,14.12
2023-01-18T12:12:52.877Z,14.12
2023-01-18T12:16:01.591Z,14.07
2023-01-18T12:18:59.158Z,14.04
2023-01-18T12:21:50.114Z,14.06
2023-01-18T12:24:35.029Z,14.08
2023-01-18T12:27:33.001Z,14.08
2023-01-18T12:30:14.211Z,14.06
2023-01-18T12:33:22.639Z,14.07
2023-01-18T12:36:01.805Z,14.13
2023-01-18T12:38:33.009Z,14.22
2023-01-18T12:41:17.829Z,14.29
2023-01-18T12:44:07.620Z,14.33
2023-01-18T12:47:01.234Z,14.33
2023-01-18T12:49:34.554Z,14.34
2023-01-18T12:52:18.002Z,14.38
2023-01-18T12:55:02.053Z,14.41
2023-01-18T12:57:30.550Z,14.50
2023-01-18T13:00:19.156Z,14.61
2023-01-18T13:02:52.939Z,14.73
2023-01-18T13:05:37.141Z,14.74
2023-01-18T13:08:17.325Z,14.69
2023-01-18T13:10:47.026Z,14.63
2023-01-18T13:13:22.732Z,14.56
2023-01-18T13:15:59.164Z,14.48
2023-01-18T13:18:37.015Z,14.49
2023-01-18T13:21:32.524Z,14.46
2023-01-18T13:24:04.299Z,14.42
2023-01-18T13:26:34.746Z,14.41
2023-01-18T13:29:10.339Z,14.40
2023-01-18T13:31:38.810Z,14.42
2023-01-18T13:34:25.205Z,14.52
2023-01-18T13:37:02.487Z,14.74
2023-01-18T13:39:47.862Z,14.97
2023-01-18T13:42:22.308Z,15.10
2023-01-18T13:45:14.373Z,15.19
2023-01-18T13:47:50.078Z,15.32
2023-01-18T13:50:39.665Z,15.46
2023-01-18T13:53:18.006Z,15.65
2023-01-18T13:55:55.458Z,15.81
2023-01-18T13:58:31.603Z,15.89
2023-01-18T14:01:05.215Z,15.92
2023-01-18T14:03:33.527Z,15.92
2023-01-18T14:06:15.216Z,15.89
2023-01-18T14:08:52.950Z,15.87
2023-01-18T14:11:27.854Z,15.84
2023-01-18T14:13:59.504Z,15.79
2023-01-18T14:16:34.676Z,15.77
2023-01-18T14:19:19.877Z,15.70
2023-01-18T14:22:07.524Z,15.59
2023-01-18T14:24:45.250Z,15.54
2023-01-18T14:27:47.205Z,15.52
2023-01-18T14:30:34.568Z,15.53
2023-01-18T14:33:26.630Z,15.49
2023-01-18T14:36:01.189Z,15.46
2023-01-18T14:38:31.449Z,15.40
2023-01-18T14:41:08.259Z,15.32
